Time;durP1;ratioP1;P1;durP2;ratioP2;P2;SDS_P1;SDS_P2;PMS_P1;PMS_P2;Temp;Humidity;BMP_temperature;BMP_pressure;BME280_temperature;BME280_humidity;BME280_pressure;Samples;Min_cycle;Max_cycle;Signal;HPM_P1;HPM_P2
2022/01/31 00:00:00;;;;;;;3.88;2.13;;;;;;;;;;4989277;28;20069;-85
2022/01/31 00:02:26;;;;;;;4.47;2.08;;;;;;;;;;4991771;28;20112;-84
2022/01/31 00:04:52;;;;;;;4.53;1.90;;;;;;;;;;5019795;28;20042;-86
2022/01/31 00:07:18;;;;;;;5.00;1.55;;;;;;;;;;4994887;28;20379;-85
2022/01/31 00:09:45;;;;;;;4.53;2.00;;;;;;;;;;4991114;28;20030;-85
2022/01/31 00:12:13;;;;;;;4.63;1.90;;;;;;;;;;4988373;28;20046;-84
2022/01/31 00:14:45;;;;;;;;;;;;;;;;;;4993142;28;20022;-85
2022/01/31 00:17:11;;;;;;;3.25;1.90;;;;;;;;;;4991668;28;20295;-85
2022/01/31 00:19:38;;;;;;;4.95;2.10;;;;;;;;;;5010259;28;20018;-85
2022/01/31 00:22:05;;;;;;;3.65;1.40;;;;;;;;;;4989244;28;20030;-86
2022/01/31 00:24:33;;;;;;;4.28;2.10;;;;;;;;;;4988901;28;20080;-84
2022/01/31 00:26:59;;;;;;;5.87;2.37;;;;;;;;;;4987650;28;20027;-84
2022/01/31 00:29:25;;;;;;;4.90;2.03;;;;;;;;;;4990722;28;20283;-84
2022/01/31 00:31:51;;;;;;;4.57;2.17;;;;;;;;;;4987451;28;20110;-84
2022/01/31 00:34:17;;;;;;;3.45;1.70;;;;;;;;;;4991972;28;20447;-85
2022/01/31 00:36:43;;;;;;;2.88;1.70;;;;;;;;;;4987526;28;20069;-84
2022/01/31 00:39:09;;;;;;;3.38;1.45;;;;;;;;;;4989799;28;20571;-84
2022/01/31 00:41:36;;;;;;;1.73;0.98;;;;;;;;;;4990446;28;20047;-85
2022/01/31 00:44:14;;;;;;;2.75;1.30;;;;;;;;;;4990553;28;20497;-84
2022/01/31 00:46:43;;;;;;;;;;;;;;;;;;4992877;28;20030;-85
2022/01/31 00:49:16;;;;;;;3.70;1.45;;;;;;;;;;4990120;28;20401;-85
2022/01/31 00:51:42;;;;;;;4.28;1.73;;;;;;;;;;4977746;28;20093;-85
2022/01/31 00:54:07;;;;;;;2.88;1.30;;;;;;;;;;4990793;28;20085;-85
2022/01/31 00:56:33;;;;;;;3.72;1.83;;;;;;;;;;4991948;28;20113;-84
2022/01/31 00:58:59;;;;;;;3.50;1.20;;;;;;;;;;4995478;28;20579;-86
2022/01/31 01:01:25;;;;;;;2.55;1.30;;;;;;;;;;4986578;28;20054;-85
2022/01/31 01:03:51;;;;;;;3.45;1.67;;;;;;;;;;4992887;28;20563;-85
2022/01/31 01:06:17;;;;;;;4.30;1.38;;;;;;;;;;4991836;28;20026;-84
2022/01/31 01:08:43;;;;;;;4.22;1.75;;;;;;;;;;4988892;28;20035;-85
2022/01/31 01:11:09;;;;;;;4.82;1.90;;;;;;;;;;4976103;28;20030;-85
2022/01/31 01:13:35;;;;;;;2.58;1.20;;;;;;;;;;5014012;28;20328;-85
2022/01/31 01:16:01;;;;;;;1.92;1.13;;;;;;;;;;4980070;28;20038;-85
2022/01/31 01:18:27;;;;;;;2.47;1.08;;;;;;;;;;4982532;28;20498;-86
2022/01/31 01:20:53;;;;;;;2.63;1.25;;;;;;;;;;4990743;28;20034;-85
2022/01/31 01:23:19;;;;;;;1.92;1.15;;;;;;;;;;4992679;28;20041;-85
2022/01/31 01:25:47;;;;;;;1.95;1.17;;;;;;;;;;4994919;28;20019;-85
2022/01/31 01:28:13;;;;;;;2.47;1.30;;;;;;;;;;4985260;28;20101;-85
2022/01/31 01:30:39;;;;;;;2.30;1.10;;;;;;;;;;4993713;28;20391;-84
2022/01/31 01:33:19;;;;;;;2.08;0.70;;;;;;;;;;4986732;28;20023;-85
2022/01/31 01:35:48;;;;;;;1.13;0.63;;;;;;;;;;4988455;28;20114;-85
2022/01/31 01:38:16;;;;;;;1.88;0.75;;;;;;;;;;4990428;28;20023;-86
2022/01/31 01:40:42;;;;;;;;;;;;;;;;;;5014641;28;20041;-86
2022/01/31 01:43:09;;;;;;;1.38;0.80;;;;;;;;;;4994351;28;20381;-85
2022/01/31 01:45:35;;;;;;;1.85;0.80;;;;;;;;;;5003682;28;20050;-84
2022/01/31 01:48:01;;;;;;;2.42;1.10;;;;;;;;;;4993115;28;20538;-85
2022/01/31 01:50:27;;;;;;;2.13;0.82;;;;;;;;;;5006801;28;20373;-84
2022/01/31 01:52:53;;;;;;;2.25;0.73;;;;;;;;;;4994120;28;20454;-84
2022/01/31 01:55:19;;;;;;;1.80;0.68;;;;;;;;;;4989545;28;20062;-85
2022/01/31 01:57:45;;;;;;;1.65;0.80;;;;;;;;;;4990932;28;20034;-85
2022/01/31 02:00:18;;;;;;;1.83;0.80;;;;;;;;;;5000206;28;20034;-85
2022/01/31 02:02:44;;;;;;;3.00;1.00;;;;;;;;;;4977387;28;20081;-85
2022/01/31 02:05:10;;;;;;;3.00;0.70;;;;;;;;;;5004486;28;20115;-84
2022/01/31 02:07:37;;;;;;;1.48;0.90;;;;;;;;;;5011284;28;20057;-85
2022/01/31 02:10:04;;;;;;;1.88;1.10;;;;;;;;;;4991544;28;20125;-84
2022/01/31 02:12:40;;;;;;;3.80;1.35;;;;;;;;;;4989136;28;20518;-85
2022/01/31 02:15:07;;;;;;;2.63;1.05;;;;;;;;;;4990404;28;20022;-85
2022/01/31 02:17:34;;;;;;;1.80;0.80;;;;;;;;;;4991892;28;20023;-85
2022/01/31 02:20:00;;;;;;;1.27;0.70;;;;;;;;;;4994049;28;20364;-85
2022/01/31 02:22:26;;;;;;;2.13;1.13;;;;;;;;;;4985791;28;20095;-83
2022/01/31 02:24:52;;;;;;;2.00;1.00;;;;;;;;;;4989184;28;20070;-86
2022/01/31 02:27:25;;;;;;;3.10;1.30;;;;;;;;;;4991429;28;20065;-85
2022/01/31 02:29:51;;;;;;;1.15;0.65;;;;;;;;;;4989128;28;20106;-85
2022/01/31 02:32:20;;;;;;;1.95;1.00;;;;;;;;;;4991042;28;20475;-85
2022/01/31 02:34:46;;;;;;;1.92;1.10;;;;;;;;;;4992250;28;20084;-84
2022/01/31 02:37:12;;;;;;;2.80;1.20;;;;;;;;;;4992249;28;20041;-84
2022/01/31 02:39:38;;;;;;;2.17;0.93;;;;;;;;;;4990435;28;20026;-84
2022/01/31 02:42:04;;;;;;;2.20;1.00;;;;;;;;;;4990772;28;20034;-85
2022/01/31 02:44:30;;;;;;;4.00;0.93;;;;;;;;;;5007860;28;20046;-85
2022/01/31 02:46:57;;;;;;;2.80;0.80;;;;;;;;;;5008801;28;20507;-85
2022/01/31 02:49:28;;;;;;;2.33;0.95;;;;;;;;;;5017690;28;20035;-85
2022/01/31 02:51:56;;;;;;;1.42;1.00;;;;;;;;;;4991837;28;20061;-85
2022/01/31 02:54:23;;;;;;;1.83;1.10;;;;;;;;;;4987727;28;20027;-85
2022/01/31 02:56:49;;;;;;;1.75;1.10;;;;;;;;;;4991329;28;20057;-85
2022/01/31 02:59:15;;;;;;;3.20;0.88;;;;;;;;;;5022959;28;20033;-85
2022/01/31 03:01:41;;;;;;;1.83;0.85;;;;;;;;;;5009737;28;20038;-85
2022/01/31 03:04:07;;;;;;;1.70;0.93;;;;;;;;;;4990219;28;20105;-84
2022/01/31 03:06:36;;;;;;;1.70;1.00;;;;;;;;;;4986560;28;20442;-85
2022/01/31 03:09:03;;;;;;;3.25;0.70;;;;;;;;;;4989491;28;20132;-85
2022/01/31 03:11:29;;;;;;;1.45;0.90;;;;;;;;;;4992499;28;20053;-85
2022/01/31 03:13:55;;;;;;;2.90;1.15;;;;;;;;;;4994172;28;20042;-85
2022/01/31 03:16:21;;;;;;;2.53;1.30;;;;;;;;;;4975216;28;20023;-86
2022/01/31 03:18:47;;;;;;;1.83;1.00;;;;;;;;;;4988201;28;20399;-85
2022/01/31 03:21:14;;;;;;;1.77;0.77;;;;;;;;;;4990689;28;20470;-84
2022/01/31 03:23:40;;;;;;;3.28;1.00;;;;;;;;;;4991864;28;20069;-85
2022/01/31 03:26:06;;;;;;;1.73;0.90;;;;;;;;;;5007852;28;20116;-84
2022/01/31 03:28:32;;;;;;;1.63;0.75;;;;;;;;;;5008196;28;20041;-85
2022/01/31 03:30:58;;;;;;;2.10;1.00;;;;;;;;;;5012023;28;20022;-84
2022/01/31 03:33:24;;;;;;;3.08;1.30;;;;;;;;;;4991553;28;20056;-84
2022/01/31 03:35:50;;;;;;;2.40;1.27;;;;;;;;;;4990065;28;20026;-85
2022/01/31 03:38:16;;;;;;;2.20;0.90;;;;;;;;;;4990459;28;20126;-84
2022/01/31 03:40:42;;;;;;;1.08;0.60;;;;;;;;;;5010970;28;20450;-84
2022/01/31 03:43:08;;;;;;;2.30;0.85;;;;;;;;;;4987856;28;20038;-85
2022/01/31 03:45:34;;;;;;;2.45;0.80;;;;;;;;;;4987978;28;20026;-85
2022/01/31 03:48:02;;;;;;;1.35;0.80;;;;;;;;;;4988617;28;20025;-85
2022/01/31 03:50:28;;;;;;;2.22;0.85;;;;;;;;;;4989747;28;20118;-85
2022/01/31 03:52:54;;;;;;;1.50;0.80;;;;;;;;;;5023226;28;20057;-85
2022/01/31 03:55:21;;;;;;;3.22;1.13;;;;;;;;;;4991009;28;20023;-84
2022/01/31 03:57:49;;;;;;;1.92;0.90;;;;;;;;;;4990252;28;20022;-84
2022/01/31 04:00:15;;;;;;;2.03;1.00;;;;;;;;;;5006650;28;20111;-85
2022/01/31 04:02:41;;;;;;;4.50;1.45;;;;;;;;;;4990000;28;20105;-84
2022/01/31 04:05:08;;;;;;;3.65;1.08;;;;;;;;;;5002595;28;20482;-84
2022/01/31 04:07:34;;;;;;;4.00;1.20;;;;;;;;;;5009401;28;20027;-85
2022/01/31 04:10:00;;;;;;;2.15;0.75;;;;;;;;;;4990616;28;20030;-85
2022/01/31 04:12:26;;;;;;;1.17;0.70;;;;;;;;;;4986542;28;20434;-86
2022/01/31 04:14:52;;;;;;;1.75;0.80;;;;;;;;;;4988803;28;20424;-85
2022/01/31 04:17:22;;;;;;;1.17;0.57;;;;;;;;;;4989174;28;20069;-85
2022/01/31 04:19:48;;;;;;;1.73;0.73;;;;;;;;;;5010216;28;20042;-85
2022/01/31 04:22:17;;;;;;;1.50;0.57;;;;;;;;;;4986905;28;20057;-85
2022/01/31 04:24:46;;;;;;;1.38;0.60;;;;;;;;;;4986671;28;20428;-86
2022/01/31 04:27:17;;;;;;;0.68;0.47;;;;;;;;;;4988154;28;20022;-85
2022/01/31 04:29:44;;;;;;;1.70;1.00;;;;;;;;;;4992896;28;20027;-85
2022/01/31 04:32:10;;;;;;;1.67;0.88;;;;;;;;;;4992594;28;20351;-84
2022/01/31 04:34:36;;;;;;;2.95;1.00;;;;;;;;;;5007352;28;20034;-85
2022/01/31 04:37:02;;;;;;;3.03;1.65;;;;;;;;;;4992273;28;20030;-84
2022/01/31 04:39:31;;;;;;;3.08;1.50;;;;;;;;;;4988376;28;20027;-85
2022/01/31 04:41:57;;;;;;;4.20;1.60;;;;;;;;;;4986896;28;20616;-85
2022/01/31 04:44:23;;;;;;;4.75;1.30;;;;;;;;;;4990901;28;20049;-85
2022/01/31 04:46:51;;;;;;;2.40;1.27;;;;;;;;;;4993746;28;20018;-85
2022/01/31 04:49:17;;;;;;;2.83;1.20;;;;;;;;;;4991841;28;20027;-85
2022/01/31 04:51:43;;;;;;;2.13;0.90;;;;;;;;;;4990312;28;20045;-85
2022/01/31 04:54:09;;;;;;;1.70;0.85;;;;;;;;;;4990283;28;20464;-83
2022/01/31 04:56:36;;;;;;;4.45;1.23;;;;;;;;;;4991907;28;20038;-83
2022/01/31 04:59:03;;;;;;;3.08;1.30;;;;;;;;;;4995188;28;20341;-86
2022/01/31 05:01:29;;;;;;;3.03;1.38;;;;;;;;;;4994890;28;20077;-86
2022/01/31 05:03:55;;;;;;;2.10;1.38;;;;;;;;;;5008252;28;20466;-85
2022/01/31 05:06:28;;;;;;;1.70;0.90;;;;;;;;;;4990205;28;20046;-85
2022/01/31 05:08:54;;;;;;;1.67;0.60;;;;;;;;;;4992052;28;20026;-85
2022/01/31 05:11:20;;;;;;;2.38;0.85;;;;;;;;;;4991213;28;20056;-84
2022/01/31 05:13:46;;;;;;;3.03;1.45;;;;;;;;;;5013045;28;20026;-85
2022/01/31 05:16:12;;;;;;;2.47;1.15;;;;;;;;;;4991217;28;20041;-84
2022/01/31 05:18:38;;;;;;;2.83;1.30;;;;;;;;;;4990192;28;20018;-85
2022/01/31 05:21:05;;;;;;;2.75;1.00;;;;;;;;;;4989714;28;20429;-85
2022/01/31 05:23:32;;;;;;;2.65;1.10;;;;;;;;;;5006570;28;20055;-85
2022/01/31 05:25:58;;;;;;;1.50;0.85;;;;;;;;;;5014196;28;20383;-84
2022/01/31 05:28:24;;;;;;;3.53;1.35;;;;;;;;;;4991756;28;20034;-85
2022/01/31 05:30:50;;;;;;;2.50;1.05;;;;;;;;;;4991684;28;20483;-84
2022/01/31 05:33:16;;;;;;;4.72;2.05;;;;;;;;;;4990974;28;20030;-84
2022/01/31 05:35:43;;;;;;;2.67;1.48;;;;;;;;;;4989720;28;20053;-85
2022/01/31 05:38:09;;;;;;;3.28;1.33;;;;;;;;;;4990772;28;20383;-85
2022/01/31 05:40:35;;;;;;;2.00;0.90;;;;;;;;;;4989876;28;20030;-85
2022/01/31 05:43:01;;;;;;;0.98;0.60;;;;;;;;;;4990794;28;20070;-84
2022/01/31 05:45:27;;;;;;;2.65;1.30;;;;;;;;;;5005162;28;20034;-84
2022/01/31 05:47:53;;;;;;;2.67;1.17;;;;;;;;;;4991863;28;20037;-84
2022/01/31 05:50:19;;;;;;;1.45;0.80;;;;;;;;;;4992692;28;20100;-85
2022/01/31 05:52:45;;;;;;;3.53;1.10;;;;;;;;;;5012093;28;20092;-85
2022/01/31 05:55:12;;;;;;;2.60;1.20;;;;;;;;;;4991447;28;20391;-84
2022/01/31 05:57:38;;;;;;;4.03;1.40;;;;;;;;;;4989739;28;20062;-85
2022/01/31 06:00:06;;;;;;;1.45;0.73;;;;;;;;;;4989588;28;20487;-83
2022/01/31 06:02:32;;;;;;;1.42;0.70;;;;;;;;;;4975597;28;20030;-86
2022/01/31 06:04:58;;;;;;;1.02;0.50;;;;;;;;;;5009867;28;20034;-86
2022/01/31 06:07:24;;;;;;;2.08;1.20;;;;;;;;;;4992781;28;20480;-86
2022/01/31 06:09:50;;;;;;;2.10;1.10;;;;;;;;;;4990800;28;20066;-84
2022/01/31 06:12:16;;;;;;;1.50;0.90;;;;;;;;;;4988333;28;20043;-85
2022/01/31 06:14:42;;;;;;;2.10;1.10;;;;;;;;;;4989012;28;20459;-84
2022/01/31 06:17:08;;;;;;;0.28;0.25;;;;;;;;;;4992070;28;20030;-85
2022/01/31 06:19:34;;;;;;;1.95;1.00;;;;;;;;;;5011090;28;20022;-83
2022/01/31 06:22:00;;;;;;;1.85;0.85;;;;;;;;;;4988522;28;20494;-83
2022/01/31 06:24:26;;;;;;;2.33;1.02;;;;;;;;;;4987701;28;20062;-84
2022/01/31 06:26:53;;;;;;;3.92;1.60;;;;;;;;;;4992468;28;20034;-83
2022/01/31 06:29:19;;;;;;;5.57;1.77;;;;;;;;;;4990400;28;20026;-83
2022/01/31 06:31:45;;;;;;;4.70;1.55;;;;;;;;;;5004270;28;20034;-82
2022/01/31 06:34:11;;;;;;;5.03;2.03;;;;;;;;;;4986228;28;20030;-83
2022/01/31 06:36:37;;;;;;;6.90;2.65;;;;;;;;;;5003412;28;20080;-82
2022/01/31 06:39:04;;;;;;;6.60;2.70;;;;;;;;;;4982571;28;20040;-82
2022/01/31 06:41:30;;;;;;;5.25;1.92;;;;;;;;;;4984214;28;20030;-84
2022/01/31 06:43:56;;;;;;;2.42;1.33;;;;;;;;;;4979186;28;20065;-84
2022/01/31 06:46:22;;;;;;;4.68;1.70;;;;;;;;;;4986406;28;20535;-84
2022/01/31 06:48:48;;;;;;;5.68;1.23;;;;;;;;;;5004363;28;20058;-84
2022/01/31 06:51:14;;;;;;;6.22;2.75;;;;;;;;;;4987079;28;20475;-84
2022/01/31 06:53:41;;;;;;;7.88;3.60;;;;;;;;;;4981206;28;20090;-84
2022/01/31 06:56:08;;;;;;;7.22;3.20;;;;;;;;;;4980209;28;20585;-84
2022/01/31 06:58:34;;;;;;;6.43;2.65;;;;;;;;;;4991379;28;20027;-85
2022/01/31 07:01:00;;;;;;;5.07;2.03;;;;;;;;;;4990338;28;20027;-85
2022/01/31 07:03:26;;;;;;;5.63;2.50;;;;;;;;;;4987350;28;20128;-84
2022/01/31 07:05:52;;;;;;;6.18;2.47;;;;;;;;;;4991119;28;20023;-87
2022/01/31 07:08:18;;;;;;;5.88;2.38;;;;;;;;;;4981832;28;20097;-84
2022/01/31 07:10:50;;;;;;;6.05;2.30;;;;;;;;;;5007998;28;20475;-84
2022/01/31 07:13:24;;;;;;;6.07;2.50;;;;;;;;;;4988566;28;20058;-85
2022/01/31 07:15:50;;;;;;;6.18;2.60;;;;;;;;;;4992420;28;20034;-85
2022/01/31 07:18:16;;;;;;;4.30;1.70;;;;;;;;;;4988007;28;20048;-85
2022/01/31 07:20:46;;;;;;;4.82;1.75;;;;;;;;;;4990637;28;20022;-84
2022/01/31 07:23:22;;;;;;;5.38;2.00;;;;;;;;;;4991277;28;20030;-84
2022/01/31 07:25:48;;;;;;;6.90;2.35;;;;;;;;;;5014653;28;20038;-85
2022/01/31 07:28:16;;;;;;;4.85;2.08;;;;;;;;;;4994437;28;20550;-85
2022/01/31 07:30:45;;;;;;;8.38;3.28;;;;;;;;;;4991814;28;20030;-84
2022/01/31 07:33:12;;;;;;;9.25;3.53;;;;;;;;;;4990713;28;20029;-85
2022/01/31 07:35:38;;;;;;;7.43;3.22;;;;;;;;;;4990496;28;20374;-84
2022/01/31 07:38:04;;;;;;;8.65;3.08;;;;;;;;;;4991773;28;20014;-85
2022/01/31 07:40:30;;;;;;;6.93;3.10;;;;;;;;;;5008060;28;20030;-85
2022/01/31 07:42:56;;;;;;;5.72;2.80;;;;;;;;;;4988720;28;20028;-85
2022/01/31 07:45:22;;;;;;;6.53;2.38;;;;;;;;;;4986521;28;20499;-85
2022/01/31 07:47:48;;;;;;;5.18;2.53;;;;;;;;;;4986642;28;20128;-85
2022/01/31 07:50:14;;;;;;;8.75;2.97;;;;;;;;;;4989661;28;20057;-84
2022/01/31 07:52:41;;;;;;;8.05;3.30;;;;;;;;;;5009442;28;20037;-84
2022/01/31 07:55:07;;;;;;;5.43;2.80;;;;;;;;;;4989682;28;20039;-84
2022/01/31 07:57:34;;;;;;;7.45;3.30;;;;;;;;;;4986810;28;20133;-85
2022/01/31 08:00:01;;;;;;;6.15;2.80;;;;;;;;;;4987558;28;20109;-87
2022/01/31 08:02:27;;;;;;;5.00;2.67;;;;;;;;;;4987612;28;20022;-87
2022/01/31 08:04:54;;;;;;;11.50;3.25;;;;;;;;;;4991431;28;20093;-88
2022/01/31 08:07:21;;;;;;;5.88;2.50;;;;;;;;;;4990498;28;20077;-85
2022/01/31 08:09:47;;;;;;;7.40;3.40;;;;;;;;;;4986603;28;20062;-85
2022/01/31 08:12:13;;;;;;;7.72;3.17;;;;;;;;;;4985613;28;20085;-85
2022/01/31 08:14:39;;;;;;;9.13;3.60;;;;;;;;;;4981627;28;20057;-86
2022/01/31 08:17:05;;;;;;;9.38;3.25;;;;;;;;;;4980919;28;20027;-85
2022/01/31 08:19:31;;;;;;;6.05;3.03;;;;;;;;;;4983557;28;20029;-84
2022/01/31 08:21:57;;;;;;;7.20;2.83;;;;;;;;;;4984000;28;20054;-83
2022/01/31 08:24:23;;;;;;;4.82;2.38;;;;;;;;;;4982743;28;20058;-83
2022/01/31 08:26:49;;;;;;;5.65;2.58;;;;;;;;;;4984654;28;20060;-82
2022/01/31 08:29:38;;;;;;;4.70;2.33;;;;;;;;;;4979877;28;20151;-84
2022/01/31 08:32:06;;;;;;;3.67;2.08;;;;;;;;;;4981130;28;20077;-84
2022/01/31 08:37:16;;;;;;;4.72;2.17;;;;;;;;;;4982041;28;20119;-87
2022/01/31 08:39:43;;;;;;;4.47;2.53;;;;;;;;;;4981074;28;20130;-84
2022/01/31 08:42:09;;;;;;;5.75;2.55;;;;;;;;;;4982873;28;20022;-85
2022/01/31 08:44:35;;;;;;;5.80;3.35;;;;;;;;;;4984401;28;20066;-87
2022/01/31 08:47:01;;;;;;;6.03;2.83;;;;;;;;;;4983830;28;20499;-87
2022/01/31 08:49:27;;;;;;;8.80;3.17;;;;;;;;;;4982898;28;20023;-88
2022/01/31 08:51:53;;;;;;;6.57;2.72;;;;;;;;;;4984926;28;20376;-88
2022/01/31 08:54:20;;;;;;;5.35;2.92;;;;;;;;;;4983310;28;20034;-88
2022/01/31 08:56:47;;;;;;;7.57;3.15;;;;;;;;;;4982941;28;20022;-88
2022/01/31 08:59:18;;;;;;;5.57;2.90;;;;;;;;;;4982118;28;20966;-86
2022/01/31 09:01:52;;;;;;;5.43;2.40;;;;;;;;;;4981348;28;20155;-88
2022/01/31 09:04:32;;;;;;;7.38;2.80;;;;;;;;;;4987017;28;20030;-87
2022/01/31 09:06:58;;;;;;;5.47;3.10;;;;;;;;;;4988919;28;20026;-86
2022/01/31 09:09:24;;;;;;;7.13;2.88;;;;;;;;;;4987726;28;20031;-86
2022/01/31 09:11:50;;;;;;;5.22;2.60;;;;;;;;;;4987662;28;20347;-87
2022/01/31 09:14:16;;;;;;;4.85;2.10;;;;;;;;;;4991987;28;20088;-87
2022/01/31 09:16:43;;;;;;;4.90;2.10;;;;;;;;;;5013346;28;20419;-86
2022/01/31 09:19:09;;;;;;;2.78;1.67;;;;;;;;;;4992481;28;20038;-85
2022/01/31 09:21:35;;;;;;;3.53;1.92;;;;;;;;;;4990960;28;20794;-86
2022/01/31 09:24:01;;;;;;;4.55;2.30;;;;;;;;;;4993115;28;20451;-86
2022/01/31 09:26:27;;;;;;;6.03;2.50;;;;;;;;;;4993424;28;20027;-87
2022/01/31 09:28:54;;;;;;;7.55;3.85;;;;;;;;;;4995905;28;20542;-87
2022/01/31 09:31:20;;;;;;;9.82;3.78;;;;;;;;;;4994407;28;20121;-87
2022/01/31 09:33:47;;;;;;;10.30;4.38;;;;;;;;;;4991037;28;20030;-87
2022/01/31 09:36:13;;;;;;;10.40;6.13;;;;;;;;;;4992622;28;20102;-87
2022/01/31 09:38:40;;;;;;;12.43;6.70;;;;;;;;;;4992909;28;20058;-87
2022/01/31 09:41:09;;;;;;;9.80;4.47;;;;;;;;;;4995261;28;20026;-88
2022/01/31 09:44:00;;;;;;;9.15;4.43;;;;;;;;;;4993160;28;20038;-88
2022/01/31 09:48:54;;;;;;;11.52;5.93;;;;;;;;;;4994151;28;20065;-87
2022/01/31 09:51:21;;;;;;;13.32;7.15;;;;;;;;;;4991513;28;20050;-88
2022/01/31 09:53:58;;;;;;;19.13;7.15;;;;;;;;;;4990023;28;20041;-87
2022/01/31 09:56:25;;;;;;;18.05;8.95;;;;;;;;;;4993309;28;20502;-88
2022/01/31 09:58:52;;;;;;;16.13;9.18;;;;;;;;;;5021320;28;20425;-87
2022/01/31 10:01:20;;;;;;;14.77;7.53;;;;;;;;;;4989588;28;20041;-87
2022/01/31 10:03:54;;;;;;;15.50;9.00;;;;;;;;;;4987205;28;20098;-87
2022/01/31 10:06:20;;;;;;;16.60;8.20;;;;;;;;;;4991528;28;20018;-87
2022/01/31 10:08:46;;;;;;;16.02;8.90;;;;;;;;;;4990680;28;20138;-87
2022/01/31 10:11:28;;;;;;;16.30;8.85;;;;;;;;;;4992549;28;20010;-87
2022/01/31 10:16:46;;;;;;;17.77;8.75;;;;;;;;;;4994700;28;20112;-87
2022/01/31 10:19:12;;;;;;;17.73;9.02;;;;;;;;;;4993910;28;20133;-88
2022/01/31 10:21:57;;;;;;;16.70;9.30;;;;;;;;;;4992042;28;20026;-87
2022/01/31 10:24:24;;;;;;;14.15;8.25;;;;;;;;;;4990807;28;20038;-88
2022/01/31 10:26:50;;;;;;;14.80;8.80;;;;;;;;;;4991002;28;20073;-88
2022/01/31 10:29:17;;;;;;;15.27;7.95;;;;;;;;;;4993929;28;20653;-88
2022/01/31 10:31:58;;;;;;;12.55;6.32;;;;;;;;;;4993043;28;20093;-88
2022/01/31 10:34:25;;;;;;;12.20;7.05;;;;;;;;;;4992889;28;20032;-88
2022/01/31 10:36:52;;;;;;;12.55;7.50;;;;;;;;;;4993314;28;20080;-88
2022/01/31 10:46:07;;;;;;;13.65;7.13;;;;;;;;;;4978251;28;20045;-88
2022/01/31 10:53:42;;;;;;;11.88;5.55;;;;;;;;;;4978151;28;20035;-87
2022/01/31 10:56:08;;;;;;;10.77;5.82;;;;;;;;;;4992363;28;20026;-86
2022/01/31 10:58:34;;;;;;;10.13;5.50;;;;;;;;;;5013355;28;20403;-88
2022/01/31 11:01:13;;;;;;;8.52;4.70;;;;;;;;;;4990263;28;20030;-89
2022/01/31 11:03:40;;;;;;;9.05;4.70;;;;;;;;;;4989721;28;20038;-88
2022/01/31 11:06:08;;;;;;;10.05;4.70;;;;;;;;;;4988778;28;20018;-86
2022/01/31 11:08:34;;;;;;;;;;;;;;;;;;4989413;28;20360;-87
2022/01/31 11:11:01;;;;;;;10.13;5.10;;;;;;;;;;5022082;28;19905;-88
2022/01/31 11:13:27;;;;;;;14.32;7.07;;;;;;;;;;4984894;28;20069;-88
2022/01/31 11:15:57;;;;;;;10.98;6.45;;;;;;;;;;4985257;28;20041;-87
2022/01/31 11:18:24;;;;;;;11.02;6.35;;;;;;;;;;4990820;28;20348;-88
2022/01/31 11:20:57;;;;;;;13.73;6.35;;;;;;;;;;4991567;28;20031;-88
2022/01/31 11:23:25;;;;;;;10.35;5.40;;;;;;;;;;4990172;28;20037;-88
2022/01/31 11:25:53;;;;;;;10.95;5.63;;;;;;;;;;5012568;28;20061;-87
2022/01/31 11:28:20;;;;;;;11.32;5.85;;;;;;;;;;4990979;28;20092;-88
2022/01/31 11:30:46;;;;;;;13.32;6.13;;;;;;;;;;4988811;28;20038;-87
2022/01/31 11:33:13;;;;;;;13.73;7.03;;;;;;;;;;4993326;28;20021;-87
2022/01/31 11:35:39;;;;;;;9.35;5.75;;;;;;;;;;4989884;28;20109;-86
2022/01/31 11:38:05;;;;;;;11.30;5.47;;;;;;;;;;4990814;28;20130;-87
2022/01/31 11:40:31;;;;;;;9.38;5.13;;;;;;;;;;5010481;28;20384;-87
2022/01/31 11:42:57;;;;;;;10.38;4.60;;;;;;;;;;4989380;28;20479;-88
2022/01/31 11:45:32;;;;;;;8.18;4.10;;;;;;;;;;4991223;28;20031;-87
2022/01/31 11:47:59;;;;;;;8.90;4.60;;;;;;;;;;4988163;28;20026;-87
2022/01/31 11:50:25;;;;;;;6.15;3.40;;;;;;;;;;4989335;28;20023;-87
2022/01/31 11:52:54;;;;;;;6.78;3.65;;;;;;;;;;5013211;28;20019;-87
2022/01/31 11:55:21;;;;;;;9.18;4.50;;;;;;;;;;4989186;28;20026;-87
2022/01/31 11:57:49;;;;;;;9.02;4.63;;;;;;;;;;4989804;28;20065;-87
2022/01/31 12:00:17;;;;;;;8.50;4.30;;;;;;;;;;4992199;28;20383;-87
2022/01/31 12:02:43;;;;;;;10.98;5.03;;;;;;;;;;4988109;28;20031;-87
2022/01/31 12:05:16;;;;;;;4.80;2.63;;;;;;;;;;5003337;28;20419;-87
2022/01/31 12:07:47;;;;;;;5.68;3.08;;;;;;;;;;5010040;28;20026;-87
2022/01/31 12:10:19;;;;;;;6.05;2.72;;;;;;;;;;4987488;28;20197;-87
2022/01/31 12:12:56;;;;;;;5.70;2.90;;;;;;;;;;4987659;28;20050;-87
2022/01/31 12:15:47;;;;;;;7.57;3.00;;;;;;;;;;4989252;28;20412;-86
2022/01/31 12:18:37;;;;;;;2.05;1.23;;;;;;;;;;4989570;28;20039;-84
2022/01/31 12:23:58;;;;;;;3.10;1.30;;;;;;;;;;4977008;28;20065;-87
2022/01/31 12:26:30;;;;;;;0.53;0.30;;;;;;;;;;4990013;28;20037;-86
2022/01/31 12:28:57;;;;;;;2.63;0.20;;;;;;;;;;5011554;28;20133;-87
2022/01/31 12:31:29;;;;;;;0.80;0.30;;;;;;;;;;4996373;28;20062;-87
2022/01/31 12:33:55;;;;;;;0.25;0.10;;;;;;;;;;4990175;28;20030;-86
2022/01/31 12:36:37;;;;;;;2.55;0.28;;;;;;;;;;4984884;28;20376;-86
2022/01/31 12:39:22;;;;;;;0.20;0.10;;;;;;;;;;4989069;28;20089;-86
2022/01/31 12:41:48;;;;;;;0.17;0.10;;;;;;;;;;4992253;28;20038;-87
2022/01/31 12:44:26;;;;;;;0.10;0.10;;;;;;;;;;4989997;28;20031;-86
2022/01/31 12:46:52;;;;;;;0.50;0.15;;;;;;;;;;5010868;28;20053;-86
2022/01/31 12:49:18;;;;;;;0.30;0.25;;;;;;;;;;4989358;28;20031;-86
2022/01/31 12:52:11;;;;;;;0.15;0.13;;;;;;;;;;4991753;28;20054;-88
2022/01/31 12:54:37;;;;;;;0.08;0.05;;;;;;;;;;4989438;28;20445;-86
2022/01/31 12:57:08;;;;;;;0.00;0.00;;;;;;;;;;4992696;28;20033;-88
2022/01/31 12:59:34;;;;;;;0.13;0.03;;;;;;;;;;5001050;28;20054;-87
2022/01/31 13:02:03;;;;;;;1.17;0.15;;;;;;;;;;4998079;28;20042;-86
2022/01/31 13:04:29;;;;;;;0.30;0.17;;;;;;;;;;4992253;28;20491;-87
2022/01/31 13:06:59;;;;;;;0.05;0.03;;;;;;;;;;4992458;28;20550;-87
2022/01/31 13:09:32;;;;;;;0.20;0.17;;;;;;;;;;4992238;28;20053;-87
2022/01/31 13:12:01;;;;;;;0.00;0.00;;;;;;;;;;4988406;28;20140;-87
2022/01/31 13:14:32;;;;;;;0.28;0.00;;;;;;;;;;5023391;28;20575;-87
2022/01/31 13:19:34;;;;;;;0.10;0.10;;;;;;;;;;4988864;28;20034;-87
2022/01/31 13:22:00;;;;;;;;;;;;;;;;;;4985970;28;20169;-87
2022/01/31 13:24:37;;;;;;;0.05;0.05;;;;;;;;;;4992266;28;20004;-87
2022/01/31 13:27:04;;;;;;;0.20;0.10;;;;;;;;;;4994373;28;20049;-87
2022/01/31 13:29:31;;;;;;;1.30;0.10;;;;;;;;;;4990679;28;20148;-87
2022/01/31 13:31:58;;;;;;;0.00;0.00;;;;;;;;;;5014520;28;20034;-87
2022/01/31 13:34:38;;;;;;;0.20;0.20;;;;;;;;;;4991043;28;20121;-87
2022/01/31 13:37:04;;;;;;;0.38;0.20;;;;;;;;;;4990668;28;20144;-87
2022/01/31 13:39:30;;;;;;;0.00;0.00;;;;;;;;;;4990084;28;20105;-86
2022/01/31 13:41:56;;;;;;;0.20;0.10;;;;;;;;;;4989365;28;20058;-86
2022/01/31 13:44:22;;;;;;;0.00;0.00;;;;;;;;;;5022178;28;20031;-86
2022/01/31 13:46:51;;;;;;;0.00;0.00;;;;;;;;;;5024013;28;20023;-87
2022/01/31 13:49:23;;;;;;;0.38;0.10;;;;;;;;;;4992440;28;20117;-87
2022/01/31 13:51:51;;;;;;;0.00;0.00;;;;;;;;;;4991562;28;20023;-87
2022/01/31 13:54:18;;;;;;;0.00;0.00;;;;;;;;;;4991711;28;20383;-86
2022/01/31 13:56:49;;;;;;;0.80;0.20;;;;;;;;;;4991557;28;20171;-87
2022/01/31 13:59:16;;;;;;;0.65;0.20;;;;;;;;;;5021469;28;20197;-87
2022/01/31 14:01:43;;;;;;;0.03;0.03;;;;;;;;;;5012258;28;20633;-87
2022/01/31 14:04:10;;;;;;;0.88;0.20;;;;;;;;;;4996417;28;20037;-87
2022/01/31 14:06:37;;;;;;;0.00;0.00;;;;;;;;;;4992821;28;20032;-86
2022/01/31 14:09:10;;;;;;;0.40;0.10;;;;;;;;;;4990876;28;20072;-87
2022/01/31 14:11:45;;;;;;;0.15;0.00;;;;;;;;;;4992317;28;20121;-86
2022/01/31 14:14:12;;;;;;;1.63;0.28;;;;;;;;;;4993243;28;20033;-86
2022/01/31 14:16:43;;;;;;;1.55;0.00;;;;;;;;;;5012777;28;20403;-87
2022/01/31 14:19:10;;;;;;;0.28;0.10;;;;;;;;;;4991555;28;20026;-87
2022/01/31 14:21:36;;;;;;;0.00;0.00;;;;;;;;;;4990802;28;20123;-87
2022/01/31 14:24:04;;;;;;;1.65;0.50;;;;;;;;;;4990608;28;20034;-87
2022/01/31 14:26:35;;;;;;;0.80;0.10;;;;;;;;;;4991392;28;20018;-86
2022/01/31 14:29:01;;;;;;;0.40;0.15;;;;;;;;;;5002225;28;20027;-87
2022/01/31 14:31:35;;;;;;;1.45;0.10;;;;;;;;;;4989978;28;20027;-86
2022/01/31 14:34:05;;;;;;;0.10;0.00;;;;;;;;;;4989678;28;20030;-87
2022/01/31 14:36:43;;;;;;;0.00;0.00;;;;;;;;;;4988895;28;20025;-87
2022/01/31 14:41:55;;;;;;;0.20;0.03;;;;;;;;;;4986092;28;20050;-87
2022/01/31 14:50:14;;;;;;;0.10;0.10;;;;;;;;;;4986372;28;20395;-86
2022/01/31 14:52:40;;;;;;;1.00;0.20;;;;;;;;;;5011767;28;20056;-86
2022/01/31 14:55:08;;;;;;;0.00;0.00;;;;;;;;;;4986900;28;20182;-86
2022/01/31 14:57:35;;;;;;;1.08;0.10;;;;;;;;;;4986981;28;20065;-87
2022/01/31 15:00:01;;;;;;;0.00;0.00;;;;;;;;;;4987736;28;20038;-88
2022/01/31 15:02:30;;;;;;;0.52;0.10;;;;;;;;;;4989144;28;20054;-86
2022/01/31 15:04:56;;;;;;;0.10;0.10;;;;;;;;;;4990233;28;20074;-87
2022/01/31 15:07:22;;;;;;;0.10;0.10;;;;;;;;;;4990311;28;20034;-87
2022/01/31 15:09:48;;;;;;;0.10;0.10;;;;;;;;;;4986703;28;20022;-87
2022/01/31 15:12:14;;;;;;;0.10;0.00;;;;;;;;;;4982638;28;20046;-86
2022/01/31 15:14:41;;;;;;;0.08;0.08;;;;;;;;;;4983680;28;20488;-86
2022/01/31 15:17:08;;;;;;;0.10;0.03;;;;;;;;;;4992469;28;20027;-86
2022/01/31 15:19:34;;;;;;;0.28;0.10;;;;;;;;;;5019454;28;20038;-87